createdAt,value
2023-02-05T00:00:23.204Z,25.95
2023-02-05T00:02:49.884Z,13.20
2023-02-05T00:05:16.597Z,19.05
2023-02-05T00:07:43.313Z,18.55
2023-02-05T00:10:12.352Z,21.88
2023-02-05T00:12:38.997Z,22.60
2023-02-05T00:15:06.420Z,25.48
2023-02-05T00:17:36.091Z,20.33
2023-02-05T00:20:03.915Z,21.08
2023-02-05T00:22:30.605Z,16.75
2023-02-05T00:24:57.227Z,19.40
2023-02-05T00:27:23.960Z,20.45
2023-02-05T00:29:50.630Z,23.90
2023-02-05T00:32:17.280Z,15.80
2023-02-05T00:34:43.959Z,25.15
2023-02-05T00:37:10.778Z,21.52
2023-02-05T00:39:37.532Z,16.17
2023-02-05T00:42:04.238Z,20.73
2023-02-05T00:44:30.938Z,13.77
2023-02-05T00:46:57.548Z,18.08
2023-02-05T00:49:24.300Z,19.13
2023-02-05T00:51:50.979Z,20.30
2023-02-05T00:54:17.729Z,23.65
2023-02-05T00:56:44.356Z,24.83
2023-02-05T00:59:11.290Z,26.63
2023-02-05T01:01:37.991Z,25.95
2023-02-05T01:04:05.011Z,15.25
2023-02-05T01:06:31.717Z,21.00
2023-02-05T01:08:58.390Z,24.58
2023-02-05T01:11:25.071Z,17.48
2023-02-05T01:13:51.758Z,23.42
2023-02-05T01:16:18.443Z,16.33
2023-02-05T01:18:45.115Z,18.67
2023-02-05T01:21:11.862Z,24.75
2023-02-05T01:23:38.563Z,33.67
2023-02-05T01:26:06.234Z,20.02
2023-02-05T01:28:32.948Z,15.93
2023-02-05T01:30:59.754Z,18.08
2023-02-05T01:33:26.690Z,19.35
2023-02-05T01:35:53.305Z,20.00
2023-02-05T01:38:19.955Z,20.27
2023-02-05T01:40:46.587Z,26.33
2023-02-05T01:43:17.877Z,19.77
2023-02-05T01:46:22.426Z,31.25
2023-02-05T01:48:52.070Z,20.55
2023-02-05T01:51:19.367Z,23.63
2023-02-05T01:53:46.468Z,21.83
2023-02-05T01:56:35.532Z,24.58
2023-02-05T01:59:17.995Z,26.83
2023-02-05T02:01:44.783Z,16.77
2023-02-05T02:04:14.720Z,19.23
2023-02-05T02:06:41.479Z,18.15
2023-02-05T02:09:08.607Z,30.08
2023-02-05T02:11:39.002Z,33.45
2023-02-05T02:14:07.414Z,20.08
2023-02-05T02:16:36.571Z,11.05
2023-02-05T02:19:07.480Z,20.95
2023-02-05T02:21:57.541Z,25.98
2023-02-05T02:24:38.962Z,21.60
2023-02-05T02:27:33.778Z,21.55
2023-02-05T02:30:24.516Z,22.20
2023-02-05T02:33:06.966Z,13.45
2023-02-05T02:35:41.025Z,15.48
2023-02-05T02:38:49.819Z,27.75
2023-02-05T02:41:27.329Z,14.45
2023-02-05T02:43:58.886Z,20.38
2023-02-05T02:46:32.166Z,16.92
2023-02-05T02:49:07.208Z,20.90
2023-02-05T02:51:37.227Z,23.80
2023-02-05T02:54:06.926Z,25.88
2023-02-05T02:56:37.301Z,23.00
2023-02-05T02:59:07.089Z,20.33
2023-02-05T03:01:35.050Z,23.42
2023-02-05T03:04:10.003Z,21.00
2023-02-05T03:06:38.447Z,20.00
2023-02-05T03:09:13.492Z,24.50
2023-02-05T03:11:40.311Z,21.13
2023-02-05T03:14:07.025Z,22.65
2023-02-05T03:16:33.735Z,20.23
2023-02-05T03:19:02.756Z,15.60
2023-02-05T03:21:36.730Z,23.15
2023-02-05T03:24:04.128Z,25.80
2023-02-05T03:26:32.858Z,27.95
2023-02-05T03:29:02.214Z,22.58
2023-02-05T03:31:57.939Z,24.30
2023-02-05T03:34:35.459Z,23.80
2023-02-05T03:37:24.048Z,30.60
2023-02-05T03:39:58.566Z,33.95
2023-02-05T03:42:31.243Z,25.83
2023-02-05T03:45:22.617Z,29.35
2023-02-05T03:48:01.478Z,29.15
2023-02-05T03:50:44.088Z,29.17
2023-02-05T03:53:29.658Z,31.67
2023-02-05T03:56:05.583Z,38.65
2023-02-05T03:58:38.096Z,24.17
2023-02-05T04:01:06.398Z,18.08
2023-02-05T04:03:33.208Z,27.02
2023-02-05T04:05:59.845Z,26.60
2023-02-05T04:08:26.665Z,30.17
2023-02-05T04:10:53.451Z,18.90
2023-02-05T04:13:20.256Z,20.40
2023-02-05T04:15:49.305Z,28.63
2023-02-05T04:18:16.409Z,30.20
2023-02-05T04:20:43.194Z,20.48
2023-02-05T04:23:10.199Z,21.20
2023-02-05T04:25:37.685Z,32.50
2023-02-05T04:28:05.631Z,24.75
2023-02-05T04:30:33.560Z,26.25
2023-02-05T04:33:00.238Z,21.20
2023-02-05T04:35:27.005Z,26.75
2023-02-05T04:37:53.686Z,26.33
2023-02-05T04:40:20.364Z,28.42
2023-02-05T04:42:46.981Z,25.88
2023-02-05T04:45:13.609Z,30.60
2023-02-05T04:47:40.243Z,38.63
2023-02-05T04:50:06.930Z,20.70
2023-02-05T04:52:33.631Z,29.63
2023-02-05T04:55:00.319Z,28.30
2023-02-05T04:57:27.050Z,19.42
2023-02-05T04:59:53.885Z,24.42
2023-02-05T05:02:20.634Z,26.15
2023-02-05T05:04:47.334Z,27.73
2023-02-05T05:07:14.245Z,37.60
2023-02-05T05:09:41.007Z,37.65
2023-02-05T05:12:07.741Z,32.60
2023-02-05T05:14:34.728Z,28.40
2023-02-05T05:17:01.353Z,34.28
2023-02-05T05:19:28.028Z,29.52
2023-02-05T05:21:54.660Z,26.35
2023-02-05T05:24:21.300Z,22.90
2023-02-05T05:26:47.978Z,33.75
2023-02-05T05:29:14.955Z,30.77
2023-02-05T05:31:42.555Z,32.40
2023-02-05T05:34:09.329Z,22.90
2023-02-05T05:36:36.013Z,29.77
2023-02-05T05:39:21.324Z,36.25
2023-02-05T05:42:06.904Z,18.50
2023-02-05T05:44:33.613Z,35.10
2023-02-05T05:47:00.265Z,20.40
2023-02-05T05:49:26.965Z,40.40
2023-02-05T05:51:53.689Z,25.35
2023-02-05T05:54:20.319Z,23.65
2023-02-05T05:56:47.101Z,26.10
2023-02-05T05:59:13.750Z,34.05
2023-02-05T06:01:40.392Z,36.13
2023-02-05T06:04:07.229Z,31.08
2023-02-05T06:06:34.116Z,25.63
2023-02-05T06:09:00.811Z,26.27
2023-02-05T06:11:27.619Z,20.40
2023-02-05T06:13:54.271Z,31.20
2023-02-05T06:16:20.950Z,26.35
2023-02-05T06:18:47.691Z,26.27
2023-02-05T06:21:14.418Z,35.00
2023-02-05T06:23:41.078Z,43.15
2023-02-05T06:26:07.869Z,37.33
2023-02-05T06:28:34.518Z,44.33
2023-02-05T06:31:01.315Z,35.08
2023-02-05T06:33:28.076Z,33.08
2023-02-05T06:35:54.691Z,32.88
2023-02-05T06:38:21.356Z,29.20
2023-02-05T06:40:48.892Z,31.85
2023-02-05T06:43:15.593Z,33.17
2023-02-05T06:45:42.220Z,29.77
2023-02-05T06:48:08.970Z,26.08
2023-02-05T06:50:35.604Z,32.35
2023-02-05T06:53:02.323Z,24.70
2023-02-05T06:55:28.984Z,27.02
2023-02-05T06:57:55.641Z,24.40
2023-02-05T07:00:22.381Z,36.22
2023-02-05T07:02:49.094Z,29.00
2023-02-05T07:05:15.769Z,23.50
2023-02-05T07:07:42.464Z,35.30
2023-02-05T07:10:09.402Z,32.72
2023-02-05T07:12:36.029Z,24.05
2023-02-05T07:15:02.725Z,36.33
2023-02-05T07:17:29.466Z,22.77
2023-02-05T07:19:56.190Z,29.80
2023-02-05T07:22:22.873Z,31.40
2023-02-05T07:24:49.504Z,25.45
2023-02-05T07:27:16.264Z,25.42
2023-02-05T07:29:42.944Z,29.67
2023-02-05T07:32:09.768Z,26.55
2023-02-05T07:34:36.573Z,23.23
2023-02-05T07:37:03.259Z,27.02
2023-02-05T07:39:30.057Z,15.63
2023-02-05T07:41:56.912Z,35.25
2023-02-05T07:44:23.595Z,43.55
2023-02-05T07:46:50.263Z,31.98
2023-02-05T07:49:17.040Z,21.80
2023-02-05T07:51:43.724Z,22.30
2023-02-05T07:54:12.308Z,21.65
2023-02-05T07:56:38.931Z,27.50
2023-02-05T07:59:06.992Z,33.13
2023-02-05T08:01:34.183Z,25.20
2023-02-05T08:04:01.035Z,26.73
2023-02-05T08:06:27.703Z,32.20
2023-02-05T08:08:55.969Z,23.02
2023-02-05T08:11:22.635Z,29.30
2023-02-05T08:13:49.349Z,32.33
2023-02-05T08:16:16.759Z,32.63
2023-02-05T08:18:47.592Z,25.83
2023-02-05T08:21:14.251Z,24.33
2023-02-05T08:23:40.899Z,24.55
2023-02-05T08:26:07.671Z,25.60
2023-02-05T08:28:34.481Z,17.00
2023-02-05T08:31:01.185Z,28.90
2023-02-05T08:33:27.949Z,19.38
2023-02-05T08:35:54.947Z,16.25
2023-02-05T08:38:21.616Z,25.15
2023-02-05T08:40:48.293Z,19.00
2023-02-05T08:43:14.993Z,18.25
2023-02-05T08:45:46.596Z,17.23
2023-02-05T08:48:13.469Z,24.02
2023-02-05T08:50:40.246Z,22.63
2023-02-05T08:53:07.144Z,15.80
2023-02-05T08:55:34.190Z,21.67
2023-02-05T08:58:01.086Z,17.45
2023-02-05T09:00:28.298Z,22.05
2023-02-05T09:02:55.251Z,21.08
2023-02-05T09:05:21.941Z,23.90
2023-02-05T09:07:48.602Z,19.42
2023-02-05T09:10:15.443Z,19.42
2023-02-05T09:12:42.116Z,21.30
2023-02-05T09:15:09.372Z,24.48
2023-02-05T09:17:36.137Z,16.35
2023-02-05T09:20:03.656Z,23.05
2023-02-05T09:22:30.344Z,16.65
2023-02-05T09:24:57.014Z,15.05
2023-02-05T09:27:23.733Z,19.60
2023-02-05T09:29:50.406Z,19.70
2023-02-05T09:32:17.065Z,15.50
2023-02-05T09:34:43.806Z,14.32
2023-02-05T09:37:10.487Z,14.55
2023-02-05T09:42:45.423Z,17.05
2023-02-05T09:45:28.103Z,19.25
2023-02-05T09:48:17.650Z,20.42
2023-02-05T09:50:44.556Z,15.77
2023-02-05T09:53:14.206Z,19.67
2023-02-05T09:55:44.870Z,25.00
2023-02-05T09:58:16.823Z,20.75
2023-02-05T10:00:53.286Z,24.73
2023-02-05T10:03:42.614Z,26.00
2023-02-05T10:06:47.277Z,27.83
2023-02-05T10:09:40.203Z,27.08
2023-02-05T10:12:41.335Z,29.67
2023-02-05T10:15:39.378Z,27.05
2023-02-05T10:18:54.258Z,24.63
2023-02-05T10:21:46.520Z,31.52
2023-02-05T10:24:20.097Z,28.58
2023-02-05T10:26:50.406Z,37.20
2023-02-05T10:29:37.975Z,21.75
2023-02-05T10:32:22.682Z,29.27
2023-02-05T10:34:55.692Z,20.30
2023-02-05T10:37:34.831Z,18.88
2023-02-05T10:40:01.888Z,25.35
2023-02-05T10:42:34.195Z,17.77
2023-02-05T10:45:13.135Z,23.02
2023-02-05T10:47:39.747Z,19.27
2023-02-05T10:50:25.641Z,23.17
2023-02-05T10:52:52.309Z,18.40
2023-02-05T10:55:19.690Z,17.38
2023-02-05T10:57:46.436Z,20.42
2023-02-05T11:00:21.733Z,13.05
2023-02-05T11:02:54.945Z,20.42
2023-02-05T11:05:22.183Z,19.92
2023-02-05T11:07:50.966Z,20.85
2023-02-05T11:10:31.578Z,23.80
2023-02-05T11:13:13.409Z,26.80
2023-02-05T11:15:54.102Z,21.33
2023-02-05T11:18:27.766Z,20.50
2023-02-05T11:20:59.934Z,25.83
2023-02-05T11:23:29.601Z,25.45
2023-02-05T11:25:58.882Z,21.73
2023-02-05T11:28:29.125Z,18.67
2023-02-05T11:30:57.230Z,17.70
2023-02-05T11:33:31.229Z,16.33
2023-02-05T11:36:02.661Z,22.43
2023-02-05T11:38:47.285Z,17.98
2023-02-05T11:41:32.155Z,14.38
2023-02-05T11:44:00.305Z,9.68
2023-02-05T11:46:29.507Z,10.45
2023-02-05T11:49:00.044Z,10.82
2023-02-05T11:51:40.456Z,13.15
2023-02-05T11:54:26.011Z,10.95
2023-02-05T11:57:30.976Z,10.73
2023-02-05T12:00:09.662Z,11.43
2023-02-05T12:02:37.781Z,17.77
2023-02-05T12:05:13.684Z,14.77
2023-02-05T12:07:47.251Z,14.98
2023-02-05T12:10:17.016Z,19.33
2023-02-05T12:13:19.454Z,24.50
2023-02-05T12:15:58.920Z,21.55
2023-02-05T12:18:48.053Z,19.60
2023-02-05T12:21:23.763Z,17.52
2023-02-05T12:23:59.505Z,27.02
2023-02-05T12:26:35.874Z,17.15
2023-02-05T12:29:21.714Z,22.90
2023-02-05T12:32:11.307Z,20.52
2023-02-05T12:35:26.963Z,22.27
2023-02-05T12:38:31.558Z,19.33
2023-02-05T12:41:03.398Z,20.75
2023-02-05T12:43:39.270Z,25.42
2023-02-05T12:46:13.927Z,34.85
2023-02-05T12:49:09.068Z,30.33
2023-02-05T12:52:12.081Z,30.23
2023-02-05T12:54:51.591Z,33.03
2023-02-05T12:57:30.499Z,36.03
2023-02-05T13:00:43.974Z,24.50
2023-02-05T13:03:30.679Z,23.55
2023-02-05T13:06:01.620Z,27.65
2023-02-05T13:08:42.600Z,17.38
2023-02-05T13:11:19.402Z,19.83
2023-02-05T13:13:53.543Z,17.85
2023-02-05T13:16:23.027Z,18.33
2023-02-05T13:19:03.179Z,14.05
2023-02-05T13:21:49.096Z,12.05
2023-02-05T13:24:53.087Z,11.88
2023-02-05T13:27:53.554Z,12.07
2023-02-05T13:30:23.577Z,13.43
2023-02-05T13:32:53.674Z,13.48
2023-02-05T13:35:22.499Z,19.85
2023-02-05T13:38:25.352Z,142.52
2023-02-05T13:40:56.380Z,69.65
2023-02-05T13:43:51.492Z,42.05
2023-02-05T13:46:33.076Z,256.38
2023-02-05T13:49:02.756Z,157.23
2023-02-05T13:51:54.520Z,445.83
2023-02-05T13:54:48.938Z,360.90
2023-02-05T13:57:21.532Z,622.08
2023-02-05T13:59:51.550Z,726.90
2023-02-05T14:02:34.559Z,757.13
2023-02-05T14:05:02.512Z,738.33
2023-02-05T14:08:01.924Z,559.17
2023-02-05T14:10:44.846Z,347.38
2023-02-05T14:13:25.746Z,620.85
2023-02-05T14:15:57.425Z,710.30
2023-02-05T14:18:39.891Z,210.13
2023-02-05T14:21:31.508Z,348.35
2023-02-05T14:24:02.687Z,237.68
2023-02-05T14:27:00.718Z,381.42
2023-02-05T14:29:44.376Z,136.45
2023-02-05T14:32:26.289Z,329.38
2023-02-05T14:35:02.540Z,124.53
2023-02-05T14:37:36.396Z,182.15
2023-02-05T14:40:17.676Z,170.48
2023-02-05T14:42:44.557Z,18.63
2023-02-05T14:45:15.578Z,142.32
2023-02-05T14:47:44.560Z,147.18
2023-02-05T14:50:28.878Z,40.13
2023-02-05T14:52:59.020Z,106.97
2023-02-05T14:55:31.405Z,204.70
2023-02-05T14:58:04.062Z,422.17
2023-02-05T15:00:36.771Z,816.55
2023-02-05T15:03:12.731Z,528.13
2023-02-05T15:05:45.228Z,617.50
2023-02-05T15:08:17.223Z,758.25
2023-02-05T15:10:58.461Z,773.10
2023-02-05T15:13:26.225Z,719.53
2023-02-05T15:16:11.336Z,910.22
2023-02-05T15:21:37.483Z,767.13
2023-02-05T15:24:13.846Z,832.83
2023-02-05T15:27:04.117Z,737.53
2023-02-05T15:29:57.170Z,847.45
2023-02-05T15:32:35.908Z,901.47
2023-02-05T15:35:11.702Z,562.25
2023-02-05T15:37:54.717Z,595.15
2023-02-05T15:40:26.709Z,424.08
2023-02-05T15:43:15.806Z,668.65
2023-02-05T15:45:45.083Z,687.63
2023-02-05T15:48:12.960Z,604.45
2023-02-05T15:50:47.437Z,762.65
2023-02-05T15:53:46.767Z,694.92
2023-02-05T15:56:19.982Z,1065.55
2023-02-05T15:58:59.496Z,912.00
2023-02-05T16:01:29.879Z,957.55
2023-02-05T16:03:56.670Z,894.25
2023-02-05T16:06:25.451Z,808.75
2023-02-05T16:08:52.607Z,980.53
2023-02-05T16:11:32.388Z,837.95
2023-02-05T16:14:08.125Z,708.80
2023-02-05T16:16:37.569Z,938.28
2023-02-05T16:19:06.492Z,740.20
2023-02-05T16:21:37.558Z,741.58
2023-02-05T16:24:11.817Z,538.92
2023-02-05T16:26:49.778Z,410.52
2023-02-05T16:29:36.130Z,380.33
2023-02-05T16:32:36.872Z,488.13
2023-02-05T16:35:05.294Z,300.75
2023-02-05T16:37:32.299Z,376.85
2023-02-05T16:40:01.409Z,190.55
2023-02-05T16:42:47.708Z,279.65
2023-02-05T16:45:22.409Z,612.92
2023-02-05T16:48:20.596Z,637.08
2023-02-05T16:50:47.351Z,812.92
2023-02-05T16:53:19.190Z,466.38
2023-02-05T16:55:46.035Z,640.05
2023-02-05T16:58:21.538Z,392.83
2023-02-05T17:00:59.804Z,472.55
2023-02-05T17:03:35.637Z,451.30
2023-02-05T17:06:04.073Z,682.15
2023-02-05T17:08:36.570Z,700.55
2023-02-05T17:11:05.927Z,731.47
2023-02-05T17:13:32.600Z,877.35
2023-02-05T17:16:26.649Z,786.22
2023-02-05T17:19:05.852Z,905.20
2023-02-05T17:21:34.157Z,810.28
2023-02-05T17:24:03.720Z,887.72
2023-02-05T17:26:33.366Z,934.83
2023-02-05T17:29:01.964Z,1211.45
2023-02-05T17:31:29.469Z,1254.05
2023-02-05T17:33:58.508Z,1159.18
2023-02-05T17:36:25.684Z,1559.43
2023-02-05T17:38:52.933Z,1576.00
2023-02-05T17:41:41.171Z,1432.25
2023-02-05T17:44:11.409Z,1523.97
2023-02-05T17:46:38.463Z,1505.32
2023-02-05T17:49:05.185Z,1665.72
2023-02-05T17:51:31.900Z,1432.40
2023-02-05T17:53:58.600Z,1558.78
2023-02-05T17:56:25.619Z,1828.50
2023-02-05T17:58:53.146Z,1824.10
2023-02-05T18:01:19.865Z,1481.43
2023-02-05T18:03:46.649Z,1578.20
2023-02-05T18:06:15.841Z,1999.28
2023-02-05T18:08:42.974Z,1887.85
2023-02-05T18:11:10.631Z,1905.00
2023-02-05T18:13:37.511Z,1577.18
2023-02-05T18:16:04.473Z,1988.60
2023-02-05T18:18:32.637Z,1925.25
2023-02-05T18:20:59.450Z,1642.68
2023-02-05T18:23:28.976Z,1830.70
2023-02-05T18:25:58.961Z,1999.90
2023-02-05T18:28:25.861Z,1999.90
2023-02-05T18:30:57.515Z,1999.90
2023-02-05T18:33:24.639Z,1178.05
2023-02-05T18:35:51.342Z,1873.53
2023-02-05T18:38:18.122Z,1253.75
2023-02-05T18:40:45.178Z,1948.72
2023-02-05T18:43:13.142Z,1944.35
2023-02-05T18:45:40.166Z,1999.90
2023-02-05T18:48:07.203Z,1999.90
2023-02-05T18:50:34.204Z,1687.72
2023-02-05T18:53:01.017Z,1323.05
2023-02-05T18:55:29.123Z,1344.00
2023-02-05T18:57:55.869Z,1476.80
2023-02-05T19:00:22.759Z,1999.90
2023-02-05T19:02:49.521Z,1850.93
2023-02-05T19:05:16.222Z,1999.90
2023-02-05T19:07:44.756Z,1999.90
2023-02-05T19:10:11.453Z,1999.90
2023-02-05T19:12:38.107Z,1999.90
2023-02-05T19:15:05.438Z,1999.90
2023-02-05T19:17:32.082Z,1999.90
2023-02-05T19:19:58.823Z,1999.90
2023-02-05T19:22:25.715Z,1999.90
2023-02-05T19:24:52.397Z,1999.90
2023-02-05T19:27:19.582Z,1999.90
2023-02-05T19:29:46.278Z,1999.90
2023-02-05T19:32:12.901Z,1999.90
2023-02-05T19:34:40.841Z,1999.90
2023-02-05T19:37:07.481Z,1999.90
2023-02-05T19:39:34.184Z,1999.90
2023-02-05T19:42:00.885Z,1999.90
2023-02-05T19:44:29.474Z,1999.90
2023-02-05T19:46:56.105Z,1999.90
2023-02-05T19:49:22.865Z,1999.90
2023-02-05T19:51:52.198Z,1999.90
2023-02-05T19:54:21.547Z,1999.90
2023-02-05T19:56:48.916Z,1999.90
2023-02-05T19:59:16.720Z,1999.90
2023-02-05T20:01:44.546Z,1999.90
2023-02-05T20:04:24.851Z,1999.90
2023-02-05T20:06:56.417Z,1999.90
2023-02-05T20:09:23.496Z,1757.07
2023-02-05T20:11:52.674Z,1524.30
2023-02-05T20:14:21.459Z,1999.90
2023-02-05T20:16:48.170Z,1999.90
2023-02-05T20:19:16.583Z,1999.90
2023-02-05T20:21:44.289Z,1999.90
2023-02-05T20:24:11.372Z,1999.90
2023-02-05T20:26:39.075Z,1823.03
2023-02-05T20:29:24.534Z,1284.05
2023-02-05T20:31:52.898Z,1999.90
2023-02-05T20:34:30.972Z,1999.90
2023-02-05T20:37:00.563Z,1999.90
2023-02-05T20:39:28.869Z,1999.90
2023-02-05T20:41:57.839Z,1999.90
2023-02-05T20:44:30.147Z,1999.90
2023-02-05T20:46:56.967Z,1797.20
2023-02-05T20:49:24.100Z,755.67
2023-02-05T20:51:52.821Z,1999.90
2023-02-05T20:54:19.840Z,1338.03
2023-02-05T20:56:46.468Z,1122.53
2023-02-05T20:59:13.140Z,897.20
2023-02-05T21:01:40.448Z,658.30
2023-02-05T21:04:08.865Z,1405.63
2023-02-05T21:06:37.878Z,1681.47
2023-02-05T21:09:05.900Z,1999.90
2023-02-05T21:11:32.615Z,1859.18
2023-02-05T21:13:59.449Z,1999.90
2023-02-05T21:16:27.764Z,1999.90
2023-02-05T21:18:55.101Z,1999.90
2023-02-05T21:21:32.956Z,1999.90
2023-02-05T21:24:05.298Z,1999.90
2023-02-05T21:26:37.873Z,1999.90
2023-02-05T21:29:10.364Z,1999.90
2023-02-05T21:31:40.162Z,1999.90
2023-02-05T21:34:09.028Z,1862.10
2023-02-05T21:36:35.870Z,1921.68
2023-02-05T21:39:02.768Z,1999.90
2023-02-05T21:41:29.559Z,1989.50
2023-02-05T21:43:59.273Z,1999.90
2023-02-05T21:46:27.601Z,1999.90
2023-02-05T21:48:56.027Z,1999.90
2023-02-05T21:51:24.797Z,1999.90
2023-02-05T21:53:57.024Z,1999.90
2023-02-05T21:56:25.393Z,1999.90
2023-02-05T21:58:52.157Z,1999.90
2023-02-05T22:01:24.777Z,1999.90
2023-02-05T22:03:54.526Z,1999.90
2023-02-05T22:06:22.633Z,1999.90
2023-02-05T22:08:50.952Z,1999.90
2023-02-05T22:11:19.857Z,1999.90
2023-02-05T22:13:49.007Z,1999.90
2023-02-05T22:16:27.266Z,1999.90
2023-02-05T22:18:54.660Z,1999.90
2023-02-05T22:21:26.883Z,1999.90
2023-02-05T22:23:54.879Z,1999.90
2023-02-05T22:26:24.586Z,1999.90
2023-02-05T22:28:51.423Z,1999.90
2023-02-05T22:31:19.928Z,1999.90
2023-02-05T22:33:48.310Z,1999.90
2023-02-05T22:36:18.517Z,1999.90
2023-02-05T22:38:45.530Z,1999.90
2023-02-05T22:41:15.437Z,1775.53
2023-02-05T22:43:42.093Z,1999.90
2023-02-05T22:46:17.031Z,1735.18
2023-02-05T22:48:46.089Z,1999.90
2023-02-05T22:51:21.718Z,1204.15
2023-02-05T22:53:48.903Z,1654.05
2023-02-05T22:56:16.838Z,1442.32
2023-02-05T22:58:46.401Z,1317.95
2023-02-05T23:01:33.704Z,1556.88
2023-02-05T23:04:02.147Z,1558.38
2023-02-05T23:06:33.973Z,1668.00
2023-02-05T23:09:03.314Z,1876.97
2023-02-05T23:11:31.353Z,1424.95
2023-02-05T23:13:58.743Z,1919.03
2023-02-05T23:16:31.053Z,1999.90
2023-02-05T23:19:03.559Z,1999.90
2023-02-05T23:21:32.208Z,1979.78
2023-02-05T23:23:59.036Z,1999.90
2023-02-05T23:26:39.503Z,1535.75
2023-02-05T23:29:06.666Z,1999.90
2023-02-05T23:31:33.733Z,1399.45
2023-02-05T23:34:00.621Z,1403.05
2023-02-05T23:36:27.305Z,1999.90
2023-02-05T23:38:54.025Z,1970.60
2023-02-05T23:41:36.387Z,1599.55
2023-02-05T23:44:03.682Z,1155.40
2023-02-05T23:46:30.575Z,1163.07
2023-02-05T23:48:58.340Z,1574.63
2023-02-05T23:51:25.080Z,1785.93
2023-02-05T23:53:51.757Z,1475.65
2023-02-05T23:56:18.409Z,1238.05
2023-02-05T23:58:45.082Z,1389.60
